sensor_id;sensor_type;location;lat;lon;timestamp;pressure;altitude;pressure_sealevel;temperature;humidity
75013;BME280;63567;49.956;20.130;2023-09-30T00:00:15;97407.91;;;17.02;70.08
75013;BME280;63567;49.956;20.130;2023-09-30T00:02:41;97410.56;;;17.02;69.94
75013;BME280;63567;49.956;20.130;2023-09-30T00:05:06;97409.75;;;17.01;70.14
75013;BME280;63567;49.956;20.130;2023-09-30T00:07:32;97402.44;;;16.97;69.96
75013;BME280;63567;49.956;20.130;2023-09-30T00:09:58;97409.38;;;16.98;70.21
75013;BME280;63567;49.956;20.130;2023-09-30T00:12:23;97404.06;;;16.98;70.02
75013;BME280;63567;49.956;20.130;2023-09-30T00:14:48;97401.84;;;16.95;70.24
75013;BME280;63567;49.956;20.130;2023-09-30T00:17:14;97407.97;;;16.95;70.02
75013;BME280;63567;49.956;20.130;2023-09-30T00:19:40;97395.13;;;16.92;70.35
75013;BME280;63567;49.956;20.130;2023-09-30T00:22:05;97401.47;;;16.91;70.28
75013;BME280;63567;49.956;20.130;2023-09-30T00:24:30;97391.06;;;16.90;70.24
75013;BME280;63567;49.956;20.130;2023-09-30T00:26:56;97397.59;;;16.87;70.20
75013;BME280;63567;49.956;20.130;2023-09-30T00:29:21;97396.00;;;16.86;70.32
75013;BME280;63567;49.956;20.130;2023-09-30T00:31:47;97384.28;;;16.87;70.30
75013;BME280;63567;49.956;20.130;2023-09-30T00:34:12;97389.63;;;16.87;70.38
75013;BME280;63567;49.956;20.130;2023-09-30T00:36:38;97389.84;;;16.86;70.36
75013;BME280;63567;49.956;20.130;2023-09-30T00:39:03;97380.81;;;16.87;70.23
75013;BME280;63567;49.956;20.130;2023-09-30T00:41:29;97386.16;;;16.87;70.31
75013;BME280;63567;49.956;20.130;2023-09-30T00:43:54;97384.53;;;16.86;70.42
75013;BME280;63567;49.956;20.130;2023-09-30T00:48:48;97378.41;;;16.85;70.02
75013;BME280;63567;49.956;20.130;2023-09-30T00:51:13;97383.72;;;16.85;70.28
75013;BME280;63567;49.956;20.130;2023-09-30T00:53:39;97385.34;;;16.86;70.04
75013;BME280;63567;49.956;20.130;2023-09-30T00:56:05;97385.34;;;16.86;70.22
75013;BME280;63567;49.956;20.130;2023-09-30T00:58:31;97379.22;;;16.86;70.06
75013;BME280;63567;49.956;20.130;2023-09-30T01:00:59;97387.19;;;16.86;70.19
75013;BME280;63567;49.956;20.130;2023-09-30T01:03:25;97378.41;;;16.85;70.15
75013;BME280;63567;49.956;20.130;2023-09-30T01:05:50;97380.81;;;16.87;70.13
75013;BME280;63567;49.956;20.130;2023-09-30T01:08:16;97371.84;;;16.88;70.13
75013;BME280;63567;49.956;20.130;2023-09-30T01:10:42;97375.09;;;16.90;70.01
75013;BME280;63567;49.956;20.130;2023-09-30T01:13:08;97369.75;;;16.90;69.83
75013;BME280;63567;49.956;20.130;2023-09-30T01:15:33;97370.34;;;16.92;69.87
75013;BME280;63567;49.956;20.130;2023-09-30T01:17:58;97361.78;;;16.90;70.30
75013;BME280;63567;49.956;20.130;2023-09-30T01:20:23;97362.38;;;16.92;69.62
75013;BME280;63567;49.956;20.130;2023-09-30T01:22:49;97351.72;;;16.92;69.71
75013;BME280;63567;49.956;20.130;2023-09-30T01:25:14;97359.47;;;16.93;69.42
75013;BME280;63567;49.956;20.130;2023-09-30T01:27:39;97363.41;;;16.91;69.50
75013;BME280;63567;49.956;20.130;2023-09-30T01:30:05;97358.06;;;16.91;69.50
75013;BME280;63567;49.956;20.130;2023-09-30T01:32:30;97353.56;;;16.91;69.53
75013;BME280;63567;49.956;20.130;2023-09-30T01:34:56;97362.97;;;16.94;69.53
75013;BME280;63567;49.956;20.130;2023-09-30T01:37:21;97360.06;;;16.95;69.36
75013;BME280;63567;49.956;20.130;2023-09-30T01:39:47;97358.00;;;16.97;69.43
75013;BME280;63567;49.956;20.130;2023-09-30T01:42:14;97355.34;;;16.97;69.41
75013;BME280;63567;49.956;20.130;2023-09-30T01:44:39;97354.06;;;17.00;69.27
75013;BME280;63567;49.956;20.130;2023-09-30T01:47:04;97352.25;;;17.00;69.26
75013;BME280;63567;49.956;20.130;2023-09-30T01:49:29;97350.59;;;16.99;69.17
75013;BME280;63567;49.956;20.130;2023-09-30T01:51:55;97354.91;;;17.00;69.10
75013;BME280;63567;49.956;20.130;2023-09-30T01:54:21;97343.44;;;17.00;69.13
75013;BME280;63567;49.956;20.130;2023-09-30T01:56:46;97344.25;;;17.00;69.03
75013;BME280;63567;49.956;20.130;2023-09-30T01:59:11;97343.44;;;17.00;68.91
75013;BME280;63567;49.956;20.130;2023-09-30T02:01:36;97337.31;;;16.99;69.01
75013;BME280;63567;49.956;20.130;2023-09-30T02:04:02;97348.53;;;17.01;68.96
75013;BME280;63567;49.956;20.130;2023-09-30T02:06:27;97341.34;;;17.02;68.63
75013;BME280;63567;49.956;20.130;2023-09-30T02:08:53;97348.53;;;17.01;68.63
75013;BME280;63567;49.956;20.130;2023-09-30T02:11:18;97347.28;;;17.04;68.70
75013;BME280;63567;49.956;20.130;2023-09-30T02:13:43;97346.69;;;17.02;68.68
75013;BME280;63567;49.956;20.130;2023-09-30T02:16:13;97338.69;;;17.02;68.57
75013;BME280;63567;49.956;20.130;2023-09-30T02:18:39;97339.28;;;17.04;68.71
75013;BME280;63567;49.956;20.130;2023-09-30T02:21:06;97340.13;;;17.04;68.64
75013;BME280;63567;49.956;20.130;2023-09-30T02:23:31;97337.22;;;17.06;68.42
75013;BME280;63567;49.956;20.130;2023-09-30T02:25:56;97344.19;;;17.07;68.18
75013;BME280;63567;49.956;20.130;2023-09-30T02:28:21;97344.19;;;17.07;68.26
75013;BME280;63567;49.956;20.130;2023-09-30T02:30:47;97338.88;;;17.07;68.14
75013;BME280;63567;49.956;20.130;2023-09-30T02:33:12;97338.03;;;17.07;68.28
75013;BME280;63567;49.956;20.130;2023-09-30T02:35:38;97347.66;;;17.08;68.16
75013;BME280;63567;49.956;20.130;2023-09-30T02:38:08;97341.28;;;17.09;68.22
75013;BME280;63567;49.956;20.130;2023-09-30T02:40:33;97334.34;;;17.08;68.25
75013;BME280;63567;49.956;20.130;2023-09-30T02:42:59;97335.97;;;17.09;68.42
75013;BME280;63567;49.956;20.130;2023-09-30T02:45:24;97338.41;;;17.10;68.29
75013;BME280;63567;49.956;20.130;2023-09-30T02:47:49;97332.50;;;17.08;68.06
75013;BME280;63567;49.956;20.130;2023-09-30T02:50:14;97335.16;;;17.08;68.24
75013;BME280;63567;49.956;20.130;2023-09-30T02:52:40;97335.75;;;17.10;68.38
75013;BME280;63567;49.956;20.130;2023-09-30T02:55:09;97331.47;;;17.09;68.33
75013;BME280;63567;49.956;20.130;2023-09-30T02:57:35;97330.63;;;17.09;68.31
75013;BME280;63567;49.956;20.130;2023-09-30T03:00:04;97334.13;;;17.09;68.47
75013;BME280;63567;49.956;20.130;2023-09-30T03:02:46;97330.03;;;17.07;68.27
75013;BME280;63567;49.956;20.130;2023-09-30T03:05:11;97334.56;;;17.06;68.14
75013;BME280;63567;49.956;20.130;2023-09-30T03:07:36;97328.44;;;17.06;68.41
75013;BME280;63567;49.956;20.130;2023-09-30T03:10:03;97323.56;;;17.02;68.58
75013;BME280;63567;49.956;20.130;2023-09-30T03:12:33;97321.50;;;17.04;68.33
75013;BME280;63567;49.956;20.130;2023-09-30T03:14:58;97321.91;;;17.01;68.41
75013;BME280;63567;49.956;20.130;2023-09-30T03:17:24;97319.47;;;17.00;68.39
75013;BME280;63567;49.956;20.130;2023-09-30T03:19:51;97311.72;;;16.98;68.61
75013;BME280;63567;49.956;20.130;2023-09-30T03:22:16;97308.22;;;16.98;68.41
75013;BME280;63567;49.956;20.130;2023-09-30T03:24:41;97314.41;;;16.98;68.72
75013;BME280;63567;49.956;20.130;2023-09-30T03:27:07;97306.41;;;16.98;68.77
75013;BME280;63567;49.956;20.130;2023-09-30T03:29:33;97310.91;;;16.98;68.96
75013;BME280;63567;49.956;20.130;2023-09-30T03:32:00;97304.78;;;16.97;68.81
75013;BME280;63567;49.956;20.130;2023-09-30T03:34:25;97300.50;;;16.96;68.80
75013;BME280;63567;49.956;20.130;2023-09-30T03:36:50;97298.84;;;16.95;68.54
75013;BME280;63567;49.956;20.130;2023-09-30T03:39:15;97300.91;;;16.93;68.77
75013;BME280;63567;49.956;20.130;2023-09-30T03:41:42;97296.66;;;16.92;68.67
75013;BME280;63567;49.956;20.130;2023-09-30T03:44:07;97303.59;;;16.93;68.82
75013;BME280;63567;49.956;20.130;2023-09-30T03:46:33;97292.34;;;16.91;68.64
75013;BME280;63567;49.956;20.130;2023-09-30T03:48:58;97293.38;;;16.90;69.03
75013;BME280;63567;49.956;20.130;2023-09-30T03:51:24;97296.25;;;16.89;68.64
75013;BME280;63567;49.956;20.130;2023-09-30T03:53:50;97307.50;;;16.91;68.53
75013;BME280;63567;49.956;20.130;2023-09-30T03:56:15;97308.31;;;16.91;68.67
75013;BME280;63567;49.956;20.130;2023-09-30T03:58:42;97306.69;;;16.90;68.54
75013;BME280;63567;49.956;20.130;2023-09-30T04:01:10;97312.81;;;16.91;68.55
75013;BME280;63567;49.956;20.130;2023-09-30T04:03:40;97310.97;;;16.91;68.53
75013;BME280;63567;49.956;20.130;2023-09-30T04:06:06;97305.91;;;16.90;68.34
75013;BME280;63567;49.956;20.130;2023-09-30T04:08:35;97309.94;;;16.92;68.44
75013;BME280;63567;49.956;20.130;2023-09-30T04:11:01;97307.28;;;16.92;68.59
75013;BME280;63567;49.956;20.130;2023-09-30T04:13:26;97305.44;;;16.93;68.50
75013;BME280;63567;49.956;20.130;2023-09-30T04:15:52;97304.41;;;16.94;68.57
75013;BME280;63567;49.956;20.130;2023-09-30T04:18:18;97304.19;;;16.95;68.27
75013;BME280;63567;49.956;20.130;2023-09-30T04:20:45;97295.16;;;16.96;68.26
75013;BME280;63567;49.956;20.130;2023-09-30T04:23:11;97305.81;;;16.96;68.40
75013;BME280;63567;49.956;20.130;2023-09-30T04:25:38;97297.38;;;16.99;68.34
75013;BME280;63567;49.956;20.130;2023-09-30T04:28:03;97307.81;;;17.01;68.25
75013;BME280;63567;49.956;20.130;2023-09-30T04:30:29;97306.53;;;17.03;68.14
75013;BME280;63567;49.956;20.130;2023-09-30T04:32:54;97309.22;;;17.03;68.11
75013;BME280;63567;49.956;20.130;2023-09-30T04:35:19;97307.13;;;17.06;68.03
75013;BME280;63567;49.956;20.130;2023-09-30T04:37:45;97306.09;;;17.07;68.23
75013;BME280;63567;49.956;20.130;2023-09-30T04:40:10;97307.72;;;17.08;68.07
75013;BME280;63567;49.956;20.130;2023-09-30T04:42:45;97305.06;;;17.08;68.20
75013;BME280;63567;49.956;20.130;2023-09-30T04:45:12;97306.47;;;17.10;67.86
75013;BME280;63567;49.956;20.130;2023-09-30T04:47:37;97317.91;;;17.11;68.06
75013;BME280;63567;49.956;20.130;2023-09-30T04:50:06;97317.50;;;17.14;67.87
75013;BME280;63567;49.956;20.130;2023-09-30T04:52:33;97316.69;;;17.13;67.84
75013;BME280;63567;49.956;20.130;2023-09-30T04:54:59;97314.59;;;17.15;67.65
75013;BME280;63567;49.956;20.130;2023-09-30T04:57:25;97324.22;;;17.16;67.61
75013;BME280;63567;49.956;20.130;2023-09-30T04:59:51;97319.47;;;17.18;67.53
75013;BME280;63567;49.956;20.130;2023-09-30T05:02:16;97319.84;;;17.22;67.47
75013;BME280;63567;49.956;20.130;2023-09-30T05:04:41;97324.94;;;17.23;67.47
75013;BME280;63567;49.956;20.130;2023-09-30T05:07:07;97320.00;;;17.27;67.46
75013;BME280;63567;49.956;20.130;2023-09-30T05:09:33;97323.25;;;17.29;67.45
75013;BME280;63567;49.956;20.130;2023-09-30T05:11:58;97323.63;;;17.33;67.42
75013;BME280;63567;49.956;20.130;2023-09-30T05:14:23;97334.63;;;17.36;67.15
75013;BME280;63567;49.956;20.130;2023-09-30T05:16:48;97333.34;;;17.39;67.42
75013;BME280;63567;49.956;20.130;2023-09-30T05:19:14;97339.06;;;17.42;67.13
75013;BME280;63567;49.956;20.130;2023-09-30T05:21:39;97338.84;;;17.44;67.36
75013;BME280;63567;49.956;20.130;2023-09-30T05:24:04;97344.50;;;17.48;67.14
75013;BME280;63567;49.956;20.130;2023-09-30T05:26:30;97344.28;;;17.49;67.25
75013;BME280;63567;49.956;20.130;2023-09-30T05:28:56;97358.00;;;17.53;67.51
75013;BME280;63567;49.956;20.130;2023-09-30T05:31:21;97351.41;;;17.55;67.47
75013;BME280;63567;49.956;20.130;2023-09-30T05:33:46;97359.16;;;17.57;67.14
75013;BME280;63567;49.956;20.130;2023-09-30T05:36:11;97364.25;;;17.58;67.33
75013;BME280;63567;49.956;20.130;2023-09-30T05:38:38;97372.63;;;17.62;67.10
75013;BME280;63567;49.956;20.130;2023-09-30T05:41:04;97371.34;;;17.64;67.16
75013;BME280;63567;49.956;20.130;2023-09-30T05:43:31;97384.47;;;17.66;67.05
75013;BME280;63567;49.956;20.130;2023-09-30T05:45:57;97379.50;;;17.70;67.13
75013;BME280;63567;49.956;20.130;2023-09-30T05:48:23;97381.69;;;17.73;66.90
75013;BME280;63567;49.956;20.130;2023-09-30T05:50:48;97383.31;;;17.74;67.03
75013;BME280;63567;49.956;20.130;2023-09-30T05:53:14;97386.56;;;17.76;67.12
75013;BME280;63567;49.956;20.130;2023-09-30T05:55:40;97386.13;;;17.79;67.18
75013;BME280;63567;49.956;20.130;2023-09-30T05:58:14;97385.09;;;17.80;67.13
75013;BME280;63567;49.956;20.130;2023-09-30T06:00:42;97387.53;;;17.81;67.17
75013;BME280;63567;49.956;20.130;2023-09-30T06:03:08;97386.94;;;17.79;67.24
75013;BME280;63567;49.956;20.130;2023-09-30T06:05:33;97385.91;;;17.80;67.49
75013;BME280;63567;49.956;20.130;2023-09-30T06:08:00;97383.84;;;17.82;67.55
75013;BME280;63567;49.956;20.130;2023-09-30T06:10:30;97388.97;;;17.84;67.47
75013;BME280;63567;49.956;20.130;2023-09-30T06:12:56;97389.78;;;17.84;67.58
75013;BME280;63567;49.956;20.130;2023-09-30T06:15:23;97393.03;;;17.86;67.64
75013;BME280;63567;49.956;20.130;2023-09-30T06:17:51;97388.75;;;17.85;67.56
75013;BME280;63567;49.956;20.130;2023-09-30T06:20:17;97385.03;;;17.86;67.73
75013;BME280;63567;49.956;20.130;2023-09-30T06:22:43;97396.53;;;17.87;67.85
75013;BME280;63567;49.956;20.130;2023-09-30T06:25:14;97397.31;;;17.88;68.07
75013;BME280;63567;49.956;20.130;2023-09-30T06:27:44;97399.78;;;17.89;68.30
75013;BME280;63567;49.956;20.130;2023-09-30T06:30:10;97397.13;;;17.89;68.90
75013;BME280;63567;49.956;20.130;2023-09-30T06:32:35;97408.34;;;17.91;69.47
75013;BME280;63567;49.956;20.130;2023-09-30T06:35:02;97411.00;;;17.91;69.54
75013;BME280;63567;49.956;20.130;2023-09-30T06:37:28;97415.31;;;17.92;69.51
75013;BME280;63567;49.956;20.130;2023-09-30T06:39:54;97415.09;;;17.94;69.56
75013;BME280;63567;49.956;20.130;2023-09-30T06:42:20;97414.25;;;17.93;69.87
75013;BME280;63567;49.956;20.130;2023-09-30T06:44:46;97414.25;;;17.93;69.68
75013;BME280;63567;49.956;20.130;2023-09-30T06:47:11;97416.69;;;17.95;69.92
75013;BME280;63567;49.956;20.130;2023-09-30T06:49:37;97422.63;;;17.97;69.87
75013;BME280;63567;49.956;20.130;2023-09-30T06:52:03;97421.00;;;17.96;69.97
75013;BME280;63567;49.956;20.130;2023-09-30T06:54:28;97432.25;;;17.98;70.08
75013;BME280;63567;49.956;20.130;2023-09-30T06:56:54;97436.53;;;17.99;70.11
75013;BME280;63567;49.956;20.130;2023-09-30T06:59:19;97434.69;;;17.99;70.24
75013;BME280;63567;49.956;20.130;2023-09-30T07:01:44;97453.94;;;18.01;70.38
75013;BME280;63567;49.956;20.130;2023-09-30T07:04:10;97454.75;;;18.02;70.39
75013;BME280;63567;49.956;20.130;2023-09-30T07:06:37;97456.97;;;18.05;70.63
75013;BME280;63567;49.956;20.130;2023-09-30T07:09:02;97454.09;;;18.06;70.60
75013;BME280;63567;49.956;20.130;2023-09-30T07:11:30;97451.78;;;18.10;70.78
75013;BME280;63567;49.956;20.130;2023-09-30T07:13:57;97472.88;;;18.12;70.84
75013;BME280;63567;49.956;20.130;2023-09-30T07:16:22;97468.13;;;18.14;70.99
75013;BME280;63567;49.956;20.130;2023-09-30T07:18:48;97475.69;;;18.17;71.18
75013;BME280;63567;49.956;20.130;2023-09-30T07:21:13;97477.06;;;18.19;71.21
75013;BME280;63567;49.956;20.130;2023-09-30T07:23:38;97486.72;;;18.20;71.42
75013;BME280;63567;49.956;20.130;2023-09-30T07:26:04;97475.84;;;18.22;71.36
75013;BME280;63567;49.956;20.130;2023-09-30T07:28:29;97483.59;;;18.23;71.49
75013;BME280;63567;49.956;20.130;2023-09-30T07:30:55;97485.81;;;18.26;71.36
75013;BME280;63567;49.956;20.130;2023-09-30T07:33:20;97489.88;;;18.29;71.33
75013;BME280;63567;49.956;20.130;2023-09-30T07:35:46;97492.56;;;18.29;71.24
75013;BME280;63567;49.956;20.130;2023-09-30T07:38:11;97495.00;;;18.31;71.44
75013;BME280;63567;49.956;20.130;2023-09-30T07:40:36;97504.03;;;18.30;71.45
75013;BME280;63567;49.956;20.130;2023-09-30T07:43:02;97513.66;;;18.31;71.44
75013;BME280;63567;49.956;20.130;2023-09-30T07:45:27;97519.81;;;18.31;71.79
75013;BME280;63567;49.956;20.130;2023-09-30T07:47:53;97520.63;;;18.32;71.97
75013;BME280;63567;49.956;20.130;2023-09-30T07:50:18;97505.09;;;18.29;71.95
75013;BME280;63567;49.956;20.130;2023-09-30T07:52:44;97507.75;;;18.29;72.13
75013;BME280;63567;49.956;20.130;2023-09-30T07:55:09;97512.63;;;18.32;72.36
75013;BME280;63567;49.956;20.130;2023-09-30T07:57:35;97517.94;;;18.32;72.37
75013;BME280;63567;49.956;20.130;2023-09-30T08:00:01;97514.25;;;18.33;72.73
75013;BME280;63567;49.956;20.130;2023-09-30T08:02:28;97522.84;;;18.35;73.07
75013;BME280;63567;49.956;20.130;2023-09-30T08:04:58;97520.78;;;18.37;73.25
75013;BME280;63567;49.956;20.130;2023-09-30T08:07:24;97532.00;;;18.39;73.40
75013;BME280;63567;49.956;20.130;2023-09-30T08:09:49;97524.59;;;18.41;73.62
75013;BME280;63567;49.956;20.130;2023-09-30T08:12:15;97537.94;;;18.41;74.05
75013;BME280;63567;49.956;20.130;2023-09-30T08:14:40;97526.25;;;18.42;74.25
75013;BME280;63567;49.956;20.130;2023-09-30T08:17:05;97524.16;;;18.44;74.25
75013;BME280;63567;49.956;20.130;2023-09-30T08:19:31;97518.59;;;18.45;74.64
75013;BME280;63567;49.956;20.130;2023-09-30T08:21:56;97517.56;;;18.46;74.77
75013;BME280;63567;49.956;20.130;2023-09-30T08:24:22;97525.56;;;18.46;74.74
75013;BME280;63567;49.956;20.130;2023-09-30T08:26:47;97522.09;;;18.46;75.10
75013;BME280;63567;49.956;20.130;2023-09-30T08:29:12;97522.66;;;18.48;75.51
75013;BME280;63567;49.956;20.130;2023-09-30T08:31:38;97529.84;;;18.47;75.68
75013;BME280;63567;49.956;20.130;2023-09-30T08:34:03;97525.34;;;18.48;75.55
75013;BME280;63567;49.956;20.130;2023-09-30T08:36:29;97525.09;;;18.50;75.70
75013;BME280;63567;49.956;20.130;2023-09-30T08:38:55;97531.47;;;18.48;75.40
75013;BME280;63567;49.956;20.130;2023-09-30T08:41:30;97533.09;;;18.50;75.75
75013;BME280;63567;49.956;20.130;2023-09-30T08:43:59;97518.34;;;18.47;75.79
75013;BME280;63567;49.956;20.130;2023-09-30T08:46:25;97536.00;;;18.48;75.81
75013;BME280;63567;49.956;20.130;2023-09-30T08:48:52;97534.94;;;18.49;76.01
75013;BME280;63567;49.956;20.130;2023-09-30T08:51:18;97540.28;;;18.49;75.93
75013;BME280;63567;49.956;20.130;2023-09-30T08:53:44;97538.44;;;18.50;75.89
75013;BME280;63567;49.956;20.130;2023-09-30T08:56:09;97541.94;;;18.50;76.01
75013;BME280;63567;49.956;20.130;2023-09-30T08:58:36;97544.59;;;18.50;75.99
75013;BME280;63567;49.956;20.130;2023-09-30T09:01:02;97540.50;;;18.47;75.93
75013;BME280;63567;49.956;20.130;2023-09-30T09:03:28;97546.69;;;18.48;75.93
75013;BME280;63567;49.956;20.130;2023-09-30T09:05:55;97545.63;;;18.49;75.96
75013;BME280;63567;49.956;20.130;2023-09-30T09:08:22;97545.63;;;18.49;75.80
75013;BME280;63567;49.956;20.130;2023-09-30T09:10:59;97544.59;;;18.50;75.72
75013;BME280;63567;49.956;20.130;2023-09-30T09:13:28;97548.06;;;18.51;76.18
75013;BME280;63567;49.956;20.130;2023-09-30T09:16:06;97544.34;;;18.52;76.24
75013;BME280;63567;49.956;20.130;2023-09-30T09:18:33;97548.06;;;18.51;76.54
75013;BME280;63567;49.956;20.130;2023-09-30T09:21:15;97541.47;;;18.53;76.41
75013;BME280;63567;49.956;20.130;2023-09-30T09:23:45;97541.47;;;18.53;76.53
75013;BME280;63567;49.956;20.130;2023-09-30T09:26:30;97537.53;;;18.56;76.67
75013;BME280;63567;49.956;20.130;2023-09-30T09:28:58;97537.31;;;18.57;76.59
75013;BME280;63567;49.956;20.130;2023-09-30T09:31:26;97536.25;;;18.58;76.49
75013;BME280;63567;49.956;20.130;2023-09-30T09:33:52;97540.34;;;18.61;76.59
75013;BME280;63567;49.956;20.130;2023-09-30T09:36:19;97540.09;;;18.62;76.62
75013;BME280;63567;49.956;20.130;2023-09-30T09:38:50;97542.78;;;18.62;76.21
75013;BME280;63567;49.956;20.130;2023-09-30T09:41:22;97547.53;;;18.60;76.12
75013;BME280;63567;49.956;20.130;2023-09-30T09:43:49;97554.28;;;18.63;76.34
75013;BME280;63567;49.956;20.130;2023-09-30T09:46:16;97543.81;;;18.61;75.91
75013;BME280;63567;49.956;20.130;2023-09-30T09:48:42;97541.97;;;18.62;76.20
75013;BME280;63567;49.956;20.130;2023-09-30T09:51:11;97542.78;;;18.62;76.05
75013;BME280;63567;49.956;20.130;2023-09-30T09:53:38;97527.59;;;18.63;75.82
75013;BME280;63567;49.956;20.130;2023-09-30T09:56:03;97537.44;;;18.62;75.93
75013;BME280;63567;49.956;20.130;2023-09-30T09:58:33;97531.75;;;18.59;76.10
75013;BME280;63567;49.956;20.130;2023-09-30T10:01:00;97532.09;;;18.62;75.81
75013;BME280;63567;49.956;20.130;2023-09-30T10:03:26;97541.75;;;18.63;75.93
75013;BME280;63567;49.956;20.130;2023-09-30T10:05:51;97532.09;;;18.62;76.54
75013;BME280;63567;49.956;20.130;2023-09-30T10:08:20;97534.19;;;18.60;76.93
75013;BME280;63567;49.956;20.130;2023-09-30T10:10:47;97537.69;;;18.61;77.11
75013;BME280;63567;49.956;20.130;2023-09-30T10:19:15;97548.56;;;18.59;77.13
75013;BME280;63567;49.956;20.130;2023-09-30T10:24:45;97550.66;;;18.57;77.15
75013;BME280;63567;49.956;20.130;2023-09-30T10:29:56;97548.19;;;18.56;77.36
75013;BME280;63567;49.956;20.130;2023-09-30T10:32:22;97550.66;;;18.57;77.39
75013;BME280;63567;49.956;20.130;2023-09-30T10:34:49;97548.44;;;18.54;77.38
75013;BME280;63567;49.956;20.130;2023-09-30T10:37:22;97549.00;;;18.56;77.55
75013;BME280;63567;49.956;20.130;2023-09-30T10:39:56;97546.59;;;18.55;77.66
75013;BME280;63567;49.956;20.130;2023-09-30T10:42:47;97551.47;;;18.58;77.74
75013;BME280;63567;49.956;20.130;2023-09-30T10:50:50;97552.16;;;18.53;78.66
75013;BME280;63567;49.956;20.130;2023-09-30T10:53:17;97549.25;;;18.55;78.87
75013;BME280;63567;49.956;20.130;2023-09-30T10:55:45;97549.25;;;18.55;78.83
75013;BME280;63567;49.956;20.130;2023-09-30T10:58:10;97550.88;;;18.56;78.86
75013;BME280;63567;49.956;20.130;2023-09-30T11:00:35;97556.22;;;18.56;79.09
75013;BME280;63567;49.956;20.130;2023-09-30T11:03:01;97553.78;;;18.54;79.32
75013;BME280;63567;49.956;20.130;2023-09-30T11:05:27;97554.81;;;18.53;79.76
75013;BME280;63567;49.956;20.130;2023-09-30T11:07:56;97556.88;;;18.51;80.03
75013;BME280;63567;49.956;20.130;2023-09-30T11:10:24;97560.63;;;18.50;80.66
75013;BME280;63567;49.956;20.130;2023-09-30T11:12:56;97554.69;;;18.48;80.83
75013;BME280;63567;49.956;20.130;2023-09-30T11:15:22;97553.03;;;18.47;80.93
75013;BME280;63567;49.956;20.130;2023-09-30T11:17:47;97559.44;;;18.46;81.00
75013;BME280;63567;49.956;20.130;2023-09-30T11:20:12;97560.69;;;18.43;81.39
75013;BME280;63567;49.956;20.130;2023-09-30T11:22:38;97565.44;;;18.41;81.58
75013;BME280;63567;49.956;20.130;2023-09-30T11:25:04;97558.47;;;18.40;81.66
75013;BME280;63567;49.956;20.130;2023-09-30T11:27:30;97562.19;;;18.39;81.80
75013;BME280;63567;49.956;20.130;2023-09-30T11:29:56;97556.25;;;18.37;82.22
75013;BME280;63567;49.956;20.130;2023-09-30T11:32:26;97561.22;;;18.34;82.61
75013;BME280;63567;49.956;20.130;2023-09-30T11:34:52;97556.34;;;18.31;82.49
75013;BME280;63567;49.956;20.130;2023-09-30T11:37:18;97556.56;;;18.29;83.10
75013;BME280;63567;49.956;20.130;2023-09-30T11:39:43;97558.84;;;18.25;83.44
75013;BME280;63567;49.956;20.130;2023-09-30T11:42:15;97561.53;;;18.25;84.02
75013;BME280;63567;49.956;20.130;2023-09-30T11:44:46;97559.31;;;18.22;84.14
75013;BME280;63567;49.956;20.130;2023-09-30T11:47:15;97563.25;;;18.20;84.38
75013;BME280;63567;49.956;20.130;2023-09-30T11:49:43;97560.00;;;18.18;84.84
75013;BME280;63567;49.956;20.130;2023-09-30T11:52:13;97556.72;;;18.16;85.13
75013;BME280;63567;49.956;20.130;2023-09-30T11:54:46;97561.47;;;18.14;85.31
75013;BME280;63567;49.956;20.130;2023-09-30T11:57:14;97569.47;;;18.14;85.76
75013;BME280;63567;49.956;20.130;2023-09-30T11:59:41;97568.88;;;18.12;86.09
75013;BME280;63567;49.956;20.130;2023-09-30T12:02:07;97567.91;;;18.06;86.37
75013;BME280;63567;49.956;20.130;2023-09-30T12:04:36;97572.44;;;18.05;86.81
75013;BME280;63567;49.956;20.130;2023-09-30T12:07:02;97577.97;;;18.04;86.93
75013;BME280;63567;49.956;20.130;2023-09-30T12:09:27;97577.97;;;18.04;87.10
75013;BME280;63567;49.956;20.130;2023-09-30T12:11:54;97567.56;;;18.02;87.35
75013;BME280;63567;49.956;20.130;2023-09-30T12:14:22;97572.28;;;18.00;87.66
75013;BME280;63567;49.956;20.130;2023-09-30T12:16:48;97568.22;;;17.98;86.84
75013;BME280;63567;49.956;20.130;2023-09-30T12:19:14;97567.19;;;17.99;86.56
75013;BME280;63567;49.956;20.130;2023-09-30T12:21:41;97560.78;;;18.00;86.66
75013;BME280;63567;49.956;20.130;2023-09-30T12:24:06;97563.03;;;18.03;86.97
75013;BME280;63567;49.956;20.130;2023-09-30T12:26:34;97565.50;;;18.04;86.73
75013;BME280;63567;49.956;20.130;2023-09-30T12:28:59;97567.09;;;18.05;87.33
75013;BME280;63567;49.956;20.130;2023-09-30T12:31:25;97567.91;;;18.06;87.46
75013;BME280;63567;49.956;20.130;2023-09-30T12:33:50;97570.16;;;18.09;87.40
75013;BME280;63567;49.956;20.130;2023-09-30T12:36:18;97571.16;;;18.08;87.80
75013;BME280;63567;49.956;20.130;2023-09-30T12:38:43;97581.41;;;18.11;87.70
75013;BME280;63567;49.956;20.130;2023-09-30T12:41:09;97575.03;;;18.12;87.75
75013;BME280;63567;49.956;20.130;2023-09-30T12:43:35;97577.47;;;18.14;87.81
75013;BME280;63567;49.956;20.130;2023-09-30T12:46:00;97577.25;;;18.15;87.76
75013;BME280;63567;49.956;20.130;2023-09-30T12:48:26;97579.09;;;18.15;87.66
75013;BME280;63567;49.956;20.130;2023-09-30T12:50:51;97581.53;;;18.16;88.05
75013;BME280;63567;49.956;20.130;2023-09-30T12:53:16;97576.22;;;18.16;87.80
75013;BME280;63567;49.956;20.130;2023-09-30T12:55:41;97572.53;;;18.17;88.03
75013;BME280;63567;49.956;20.130;2023-09-30T12:58:07;97563.25;;;18.20;88.19
75013;BME280;63567;49.956;20.130;2023-09-30T13:00:33;97566.72;;;18.20;88.32
75013;BME280;63567;49.956;20.130;2023-09-30T13:03:00;97571.59;;;18.23;88.02
75013;BME280;63567;49.956;20.130;2023-09-30T13:05:26;97564.44;;;18.24;88.14